sensor_id;sensor_type;location;lat;lon;timestamp;pressure;altitude;pressure_sealevel;temperature;humidity
55934;BME280;41839;41.386;2.082;2023-03-14T00:04:12;99077.28;;;19.62;30.70
55934;BME280;41839;41.386;2.082;2023-03-14T00:06:37;99047.78;;;19.41;33.83
55934;BME280;41839;41.386;2.082;2023-03-14T00:09:03;99090.34;;;19.55;30.99
55934;BME280;41839;41.386;2.082;2023-03-14T00:12:08;99097.31;;;19.55;31.76
55934;BME280;41839;41.386;2.082;2023-03-14T00:14:34;99112.97;;;19.55;32.00
55934;BME280;41839;41.386;2.082;2023-03-14T00:16:59;99116.44;;;19.49;32.31
55934;BME280;41839;41.386;2.082;2023-03-14T00:19:25;99119.91;;;19.56;32.16
55934;BME280;41839;41.386;2.082;2023-03-14T00:23:42;99144.28;;;19.52;32.39
55934;BME280;41839;41.386;2.082;2023-03-14T00:26:11;99160.78;;;19.48;32.18
55934;BME280;41839;41.386;2.082;2023-03-14T00:28:37;99133.88;;;19.30;33.20
55934;BME280;41839;41.386;2.082;2023-03-14T00:31:05;99168.63;;;19.37;32.85
55934;BME280;41839;41.386;2.082;2023-03-14T00:33:31;99173.88;;;19.28;33.13
55934;BME280;41839;41.386;2.082;2023-03-14T00:35:58;99167.78;;;19.30;33.43
55934;BME280;41839;41.386;2.082;2023-03-14T00:38:25;99162.56;;;19.20;33.06
55934;BME280;41839;41.386;2.082;2023-03-14T00:40:51;99173.00;;;19.06;33.41
55934;BME280;41839;41.386;2.082;2023-03-14T00:43:18;99146.06;;;18.82;33.30
55934;BME280;41839;41.386;2.082;2023-03-14T00:45:44;99153.88;;;18.95;33.17
55934;BME280;41839;41.386;2.082;2023-03-14T00:48:09;99101.72;;;18.58;33.87
55934;BME280;41839;41.386;2.082;2023-03-14T00:51:15;99175.59;;;19.01;33.06
55934;BME280;41839;41.386;2.082;2023-03-14T00:53:41;99193.84;;;18.87;32.51
55934;BME280;41839;41.386;2.082;2023-03-14T00:56:12;99199.91;;;18.91;34.93
55934;BME280;41839;41.386;2.082;2023-03-14T00:59:12;99203.41;;;18.92;31.00
55934;BME280;41839;41.386;2.082;2023-03-14T01:01:39;99204.28;;;19.04;30.92
55934;BME280;41839;41.386;2.082;2023-03-14T01:04:05;99206.03;;;18.93;30.54
55934;BME280;41839;41.386;2.082;2023-03-14T01:06:30;99202.56;;;18.96;30.82
55934;BME280;41839;41.386;2.082;2023-03-14T01:08:57;99203.44;;;19.08;30.27
55934;BME280;41839;41.386;2.082;2023-03-14T01:11:25;99207.78;;;19.11;29.95
55934;BME280;41839;41.386;2.082;2023-03-14T01:13:52;99202.56;;;18.99;31.20
55934;BME280;41839;41.386;2.082;2023-03-14T01:16:20;99206.88;;;18.80;29.92
55934;BME280;41839;41.386;2.082;2023-03-14T01:18:46;99213.81;;;18.79;29.68
55934;BME280;41839;41.386;2.082;2023-03-14T01:21:32;99200.75;;;18.72;30.18
55934;BME280;41839;41.386;2.082;2023-03-14T01:24:01;99206.84;;;18.86;29.97
55934;BME280;41839;41.386;2.082;2023-03-14T01:26:29;99210.31;;;18.79;29.27
55934;BME280;41839;41.386;2.082;2023-03-14T01:28:56;99225.09;;;18.75;30.06
55934;BME280;41839;41.386;2.082;2023-03-14T01:31:22;99219.84;;;18.69;29.00
55934;BME280;41839;41.386;2.082;2023-03-14T01:33:50;99228.56;;;18.74;28.84
55934;BME280;41839;41.386;2.082;2023-03-14T01:36:16;99238.13;;;18.89;28.96
55934;BME280;41839;41.386;2.082;2023-03-14T01:38:42;99225.94;;;18.71;28.78
55934;BME280;41839;41.386;2.082;2023-03-14T01:41:13;99245.97;;;18.77;29.20
55934;BME280;41839;41.386;2.082;2023-03-14T01:43:39;99240.75;;;18.98;29.26
55934;BME280;41839;41.386;2.082;2023-03-14T01:48:57;99246.81;;;18.85;29.41
55934;BME280;41839;41.386;2.082;2023-03-14T01:51:38;99245.97;;;18.83;29.13
55934;BME280;41839;41.386;2.082;2023-03-14T01:54:16;99243.34;;;18.77;29.30
55934;BME280;41839;41.386;2.082;2023-03-14T01:56:45;99173.75;;;18.45;29.41
55934;BME280;41839;41.386;2.082;2023-03-14T01:59:12;99244.25;;;18.93;29.13
55934;BME280;41839;41.386;2.082;2023-03-14T02:01:38;99246.84;;;18.97;29.29
55934;BME280;41839;41.386;2.082;2023-03-14T02:04:06;99246.00;;;19.00;29.27
55934;BME280;41839;41.386;2.082;2023-03-14T02:06:42;99155.50;;;18.25;29.62
55934;BME280;41839;41.386;2.082;2023-03-14T02:09:10;99237.28;;;18.81;29.89
55934;BME280;41839;41.386;2.082;2023-03-14T02:11:36;99216.31;;;18.53;30.23
55934;BME280;41839;41.386;2.082;2023-03-14T02:14:03;99218.84;;;18.32;31.58
55934;BME280;41839;41.386;2.082;2023-03-14T02:16:29;99219.72;;;18.28;31.50
55934;BME280;41839;41.386;2.082;2023-03-14T02:18:55;99196.25;;;18.20;32.39
55934;BME280;41839;41.386;2.082;2023-03-14T02:24:33;99221.31;;;17.98;32.36
55934;BME280;41839;41.386;2.082;2023-03-14T02:27:13;99226.50;;;17.96;32.55
55934;BME280;41839;41.386;2.082;2023-03-14T02:29:47;99220.38;;;17.90;32.25
55934;BME280;41839;41.386;2.082;2023-03-14T02:32:14;99225.59;;;17.91;32.66
55934;BME280;41839;41.386;2.082;2023-03-14T02:34:43;99215.22;;;17.99;32.15
55934;BME280;41839;41.386;2.082;2023-03-14T02:37:12;99191.78;;;17.96;32.21
55934;BME280;41839;41.386;2.082;2023-03-14T02:39:43;99226.56;;;18.07;32.13
55934;BME280;41839;41.386;2.082;2023-03-14T02:42:14;99233.41;;;17.96;32.71
55934;BME280;41839;41.386;2.082;2023-03-14T02:45:25;99196.88;;;17.74;33.26
55934;BME280;41839;41.386;2.082;2023-03-14T02:47:58;99216.09;;;17.93;32.36
55934;BME280;41839;41.386;2.082;2023-03-14T02:50:26;99226.53;;;18.04;32.40
55934;BME280;41839;41.386;2.082;2023-03-14T02:52:54;99237.78;;;18.02;32.13
55934;BME280;41839;41.386;2.082;2023-03-14T02:55:21;99230.78;;;17.88;32.89
55934;BME280;41839;41.386;2.082;2023-03-14T02:57:46;99215.91;;;17.70;32.76
55934;BME280;41839;41.386;2.082;2023-03-14T03:00:12;99214.25;;;17.77;32.17
55934;BME280;41839;41.386;2.082;2023-03-14T03:02:37;99218.59;;;17.78;32.54
55934;BME280;41839;41.386;2.082;2023-03-14T03:05:03;99220.38;;;17.90;32.08
55934;BME280;41839;41.386;2.082;2023-03-14T03:07:28;99222.13;;;17.89;31.96
55934;BME280;41839;41.386;2.082;2023-03-14T03:09:54;99220.44;;;17.99;31.79
55934;BME280;41839;41.386;2.082;2023-03-14T03:12:19;99216.13;;;18.04;31.41
55934;BME280;41839;41.386;2.082;2023-03-14T03:14:45;99243.06;;;18.09;31.77
55934;BME280;41839;41.386;2.082;2023-03-14T03:17:10;99205.50;;;17.69;31.77
55934;BME280;41839;41.386;2.082;2023-03-14T03:19:36;99188.19;;;17.75;31.85
55934;BME280;41839;41.386;2.082;2023-03-14T03:22:01;99243.84;;;17.94;31.95
55934;BME280;41839;41.386;2.082;2023-03-14T03:24:27;99245.63;;;18.05;31.54
55934;BME280;41839;41.386;2.082;2023-03-14T03:26:53;99236.09;;;18.11;31.72
55934;BME280;41839;41.386;2.082;2023-03-14T03:29:18;99254.25;;;17.97;32.38
55934;BME280;41839;41.386;2.082;2023-03-14T03:31:44;99253.34;;;17.92;32.12
55934;BME280;41839;41.386;2.082;2023-03-14T03:34:13;99257.81;;;18.09;31.50
55934;BME280;41839;41.386;2.082;2023-03-14T03:36:39;99214.13;;;17.60;31.93
55934;BME280;41839;41.386;2.082;2023-03-14T03:39:04;99261.97;;;17.79;32.60
55934;BME280;41839;41.386;2.082;2023-03-14T03:41:30;99264.41;;;17.62;32.29
55934;BME280;41839;41.386;2.082;2023-03-14T03:43:56;99272.31;;;17.74;31.93
55934;BME280;41839;41.386;2.082;2023-03-14T03:46:22;99236.66;;;17.61;32.39
55934;BME280;41839;41.386;2.082;2023-03-14T03:48:48;99259.13;;;17.51;32.79
55934;BME280;41839;41.386;2.082;2023-03-14T03:51:15;99271.34;;;17.63;32.69
55934;BME280;41839;41.386;2.082;2023-03-14T03:53:42;99218.34;;;17.46;32.32
55934;BME280;41839;41.386;2.082;2023-03-14T03:56:08;99257.50;;;17.67;32.62
55934;BME280;41839;41.386;2.082;2023-03-14T03:58:34;99267.03;;;17.65;32.46
55934;BME280;41839;41.386;2.082;2023-03-14T04:00:59;99252.25;;;17.60;33.36
55934;BME280;41839;41.386;2.082;2023-03-14T04:03:25;99260.75;;;17.39;33.61
55934;BME280;41839;41.386;2.082;2023-03-14T04:05:59;99191.16;;;17.04;35.17
55934;BME280;41839;41.386;2.082;2023-03-14T04:08:24;99252.84;;;17.26;34.07
55934;BME280;41839;41.386;2.082;2023-03-14T04:10:54;99230.97;;;17.01;33.87
55934;BME280;41839;41.386;2.082;2023-03-14T04:13:20;99236.84;;;16.82;34.16
55934;BME280;41839;41.386;2.082;2023-03-14T04:15:45;99258.53;;;16.86;34.65
55934;BME280;41839;41.386;2.082;2023-03-14T04:18:11;99257.59;;;16.79;34.81
55934;BME280;41839;41.386;2.082;2023-03-14T04:20:36;99271.75;;;17.07;34.18
55934;BME280;41839;41.386;2.082;2023-03-14T04:23:02;99268.28;;;17.07;33.98
55934;BME280;41839;41.386;2.082;2023-03-14T04:25:27;99272.66;;;17.15;34.20
55934;BME280;41839;41.386;2.082;2023-03-14T04:27:53;99276.19;;;17.19;34.09
55934;BME280;41839;41.386;2.082;2023-03-14T04:30:18;99260.66;;;17.26;34.04
55934;BME280;41839;41.386;2.082;2023-03-14T04:32:44;99272.72;;;17.21;34.12
55934;BME280;41839;41.386;2.082;2023-03-14T04:35:09;99270.19;;;17.26;34.24
55934;BME280;41839;41.386;2.082;2023-03-14T04:37:35;99260.59;;;17.19;34.22
55934;BME280;41839;41.386;2.082;2023-03-14T04:40:00;99289.25;;;17.25;34.46
55934;BME280;41839;41.386;2.082;2023-03-14T04:42:26;99295.25;;;17.19;34.45
55934;BME280;41839;41.386;2.082;2023-03-14T04:44:52;99292.66;;;17.21;34.28
55934;BME280;41839;41.386;2.082;2023-03-14T04:47:17;99291.88;;;17.29;34.23
55934;BME280;41839;41.386;2.082;2023-03-14T04:49:42;99275.00;;;16.86;34.77
55934;BME280;41839;41.386;2.082;2023-03-14T04:52:08;99274.75;;;16.68;35.58
55934;BME280;41839;41.386;2.082;2023-03-14T04:54:34;99269.63;;;16.72;35.39
55934;BME280;41839;41.386;2.082;2023-03-14T04:56:59;99270.56;;;16.77;35.30
55934;BME280;41839;41.386;2.082;2023-03-14T04:59:25;99264.59;;;16.88;34.99
55934;BME280;41839;41.386;2.082;2023-03-14T05:01:50;99277.66;;;16.92;35.03
55934;BME280;41839;41.386;2.082;2023-03-14T05:04:16;99263.50;;;16.69;35.12
55934;BME280;41839;41.386;2.082;2023-03-14T05:06:41;99289.47;;;16.69;35.54
55934;BME280;41839;41.386;2.082;2023-03-14T05:09:07;99256.16;;;16.32;35.75
55934;BME280;41839;41.386;2.082;2023-03-14T05:11:33;99298.84;;;16.56;35.89
55934;BME280;41839;41.386;2.082;2023-03-14T05:13:58;99297.28;;;16.72;35.73
55934;BME280;41839;41.386;2.082;2023-03-14T05:16:24;99298.16;;;16.69;35.39
55934;BME280;41839;41.386;2.082;2023-03-14T05:18:50;99307.50;;;16.55;36.13
55934;BME280;41839;41.386;2.082;2023-03-14T05:21:15;99320.28;;;16.41;36.70
55934;BME280;41839;41.386;2.082;2023-03-14T05:23:41;99325.50;;;16.44;36.75
55934;BME280;41839;41.386;2.082;2023-03-14T05:26:06;99326.28;;;16.35;36.90
55934;BME280;41839;41.386;2.082;2023-03-14T05:28:32;99324.34;;;16.22;36.41
55934;BME280;41839;41.386;2.082;2023-03-14T05:30:57;99345.13;;;16.22;36.71
55934;BME280;41839;41.386;2.082;2023-03-14T05:33:23;99323.53;;;16.23;36.52
55934;BME280;41839;41.386;2.082;2023-03-14T05:35:48;99305.06;;;16.03;36.67
55934;BME280;41839;41.386;2.082;2023-03-14T05:38:14;99329.53;;;16.22;38.58
55934;BME280;41839;41.386;2.082;2023-03-14T05:40:39;99343.44;;;16.26;36.70
55934;BME280;41839;41.386;2.082;2023-03-14T05:43:05;99342.69;;;16.34;36.53
55934;BME280;41839;41.386;2.082;2023-03-14T05:45:33;99312.00;;;16.04;37.84
55934;BME280;41839;41.386;2.082;2023-03-14T05:47:59;99322.44;;;16.07;37.02
55934;BME280;41839;41.386;2.082;2023-03-14T05:50:25;99327.81;;;16.23;37.02
55934;BME280;41839;41.386;2.082;2023-03-14T05:52:50;99301.41;;;15.90;37.26
55934;BME280;41839;41.386;2.082;2023-03-14T05:55:16;99311.94;;;16.00;39.32
55934;BME280;41839;41.386;2.082;2023-03-14T05:57:41;99328.53;;;16.12;37.11
55934;BME280;41839;41.386;2.082;2023-03-14T06:00:07;99317.03;;;15.92;37.44
55934;BME280;41839;41.386;2.082;2023-03-14T06:02:33;99324.94;;;16.03;37.37
55934;BME280;41839;41.386;2.082;2023-03-14T06:04:58;99326.44;;;15.87;38.11
55934;BME280;41839;41.386;2.082;2023-03-14T06:07:24;99315.22;;;15.88;37.54
55934;BME280;41839;41.386;2.082;2023-03-14T06:09:49;99321.13;;;15.78;38.54
55934;BME280;41839;41.386;2.082;2023-03-14T06:12:15;99320.50;;;15.94;37.73
55934;BME280;41839;41.386;2.082;2023-03-14T06:14:40;99325.53;;;15.83;37.77
55934;BME280;41839;41.386;2.082;2023-03-14T06:17:06;99332.41;;;15.80;37.96
55934;BME280;41839;41.386;2.082;2023-03-14T06:19:31;99334.19;;;15.84;38.70
55934;BME280;41839;41.386;2.082;2023-03-14T06:21:57;99195.44;;;15.01;38.36
55934;BME280;41839;41.386;2.082;2023-03-14T06:24:22;99314.47;;;15.43;38.79
55934;BME280;41839;41.386;2.082;2023-03-14T06:26:48;99316.19;;;15.43;39.07
55934;BME280;41839;41.386;2.082;2023-03-14T06:29:13;99288.16;;;15.20;39.24
55934;BME280;41839;41.386;2.082;2023-03-14T06:31:38;99317.06;;;15.45;39.50
55934;BME280;41839;41.386;2.082;2023-03-14T06:34:05;99302.75;;;15.15;39.22
55934;BME280;41839;41.386;2.082;2023-03-14T06:36:30;99332.41;;;15.33;39.58
55934;BME280;41839;41.386;2.082;2023-03-14T06:38:56;99324.63;;;15.31;42.10
55934;BME280;41839;41.386;2.082;2023-03-14T06:41:21;99324.69;;;15.34;40.08
55934;BME280;41839;41.386;2.082;2023-03-14T06:43:49;99336.66;;;15.29;41.26
55934;BME280;41839;41.386;2.082;2023-03-14T06:46:14;99301.59;;;14.99;39.68
55934;BME280;41839;41.386;2.082;2023-03-14T06:48:40;99344.97;;;15.10;40.09
55934;BME280;41839;41.386;2.082;2023-03-14T06:51:06;99302.44;;;14.98;40.17
55934;BME280;41839;41.386;2.082;2023-03-14T06:53:31;99344.09;;;15.09;40.22
55934;BME280;41839;41.386;2.082;2023-03-14T06:55:57;99356.81;;;14.98;40.19
55934;BME280;41839;41.386;2.082;2023-03-14T06:58:22;99342.88;;;14.90;40.39
55934;BME280;41839;41.386;2.082;2023-03-14T07:00:48;99255.69;;;14.47;40.57
55934;BME280;41839;41.386;2.082;2023-03-14T07:03:14;99384.06;;;15.23;39.57
55934;BME280;41839;41.386;2.082;2023-03-14T07:05:40;99371.34;;;15.36;40.03
55934;BME280;41839;41.386;2.082;2023-03-14T07:08:06;99386.59;;;15.20;39.96
55934;BME280;41839;41.386;2.082;2023-03-14T07:10:33;99358.16;;;15.23;39.09
55934;BME280;41839;41.386;2.082;2023-03-14T07:12:58;99247.28;;;14.57;39.06
55934;BME280;41839;41.386;2.082;2023-03-14T07:15:23;99384.84;;;15.19;39.69
55934;BME280;41839;41.386;2.082;2023-03-14T07:17:50;99390.16;;;15.24;39.32
55934;BME280;41839;41.386;2.082;2023-03-14T07:20:16;99385.78;;;15.23;40.98
55934;BME280;41839;41.386;2.082;2023-03-14T07:22:42;99383.88;;;15.13;39.01
55934;BME280;41839;41.386;2.082;2023-03-14T07:25:08;99378.69;;;15.13;40.07
55934;BME280;41839;41.386;2.082;2023-03-14T07:27:36;99409.88;;;15.17;39.11
55934;BME280;41839;41.386;2.082;2023-03-14T07:30:02;99364.81;;;15.09;39.18
55934;BME280;41839;41.386;2.082;2023-03-14T07:32:28;99396.56;;;15.44;40.41
55934;BME280;41839;41.386;2.082;2023-03-14T07:34:53;99407.56;;;15.33;38.89
55934;BME280;41839;41.386;2.082;2023-03-14T07:37:19;99372.03;;;15.26;38.88
55934;BME280;41839;41.386;2.082;2023-03-14T07:39:44;99403.97;;;15.25;41.64
55934;BME280;41839;41.386;2.082;2023-03-14T07:42:10;99373.63;;;15.20;38.71
55934;BME280;41839;41.386;2.082;2023-03-14T07:44:36;99414.63;;;15.40;38.88
55934;BME280;41839;41.386;2.082;2023-03-14T07:47:01;99414.28;;;15.21;38.96
55934;BME280;41839;41.386;2.082;2023-03-14T07:49:27;99375.25;;;15.14;38.68
55934;BME280;41839;41.386;2.082;2023-03-14T07:51:52;99397.94;;;15.26;38.59
55934;BME280;41839;41.386;2.082;2023-03-14T07:54:18;99444.00;;;15.40;38.27
55934;BME280;41839;41.386;2.082;2023-03-14T07:56:43;99435.72;;;15.60;38.97
55934;BME280;41839;41.386;2.082;2023-03-14T07:59:09;99422.81;;;15.63;42.07
55934;BME280;41839;41.386;2.082;2023-03-14T08:01:34;99415.63;;;15.48;38.47
55934;BME280;41839;41.386;2.082;2023-03-14T08:04:00;99436.06;;;15.77;37.85
55934;BME280;41839;41.386;2.082;2023-03-14T08:06:25;99437.97;;;15.88;37.94
55934;BME280;41839;41.386;2.082;2023-03-14T08:08:51;99330.69;;;15.32;37.24
55934;BME280;41839;41.386;2.082;2023-03-14T08:11:16;99414.53;;;15.81;39.21
55934;BME280;41839;41.386;2.082;2023-03-14T08:13:42;99446.47;;;16.31;36.62
55934;BME280;41839;41.386;2.082;2023-03-14T08:16:15;99439.03;;;16.56;36.50
55934;BME280;41839;41.386;2.082;2023-03-14T08:18:40;99450.47;;;16.69;36.15
55934;BME280;41839;41.386;2.082;2023-03-14T08:21:05;99419.50;;;16.79;35.55
55934;BME280;41839;41.386;2.082;2023-03-14T08:23:31;99455.50;;;17.16;36.22
55934;BME280;41839;41.386;2.082;2023-03-14T08:25:56;99450.38;;;17.23;35.38
55934;BME280;41839;41.386;2.082;2023-03-14T08:28:22;99452.03;;;17.18;36.64
55934;BME280;41839;41.386;2.082;2023-03-14T08:30:47;99458.06;;;17.14;35.10
55934;BME280;41839;41.386;2.082;2023-03-14T08:33:13;99454.03;;;17.41;35.14
55934;BME280;41839;41.386;2.082;2023-03-14T08:35:38;99453.97;;;17.36;34.67
55934;BME280;41839;41.386;2.082;2023-03-14T08:38:04;99424.34;;;17.19;35.24
55934;BME280;41839;41.386;2.082;2023-03-14T08:40:30;99436.78;;;17.49;34.05
55934;BME280;41839;41.386;2.082;2023-03-14T08:42:55;99449.88;;;17.57;37.79
55934;BME280;41839;41.386;2.082;2023-03-14T08:45:21;99450.13;;;17.78;34.12
55934;BME280;41839;41.386;2.082;2023-03-14T08:47:46;99418.84;;;17.77;35.45
55934;BME280;41839;41.386;2.082;2023-03-14T08:50:12;99437.25;;;17.90;34.39
55934;BME280;41839;41.386;2.082;2023-03-14T08:52:38;99448.69;;;18.12;33.36
55934;BME280;41839;41.386;2.082;2023-03-14T08:55:06;99455.63;;;18.13;34.67
55934;BME280;41839;41.386;2.082;2023-03-14T08:57:32;99464.34;;;18.17;33.72
55934;BME280;41839;41.386;2.082;2023-03-14T08:59:58;99464.28;;;18.11;33.57
55934;BME280;41839;41.386;2.082;2023-03-14T09:02:24;99461.75;;;18.17;33.92
55934;BME280;41839;41.386;2.082;2023-03-14T09:04:50;99440.63;;;17.83;34.57
55934;BME280;41839;41.386;2.082;2023-03-14T09:07:17;99476.38;;;18.04;35.04
55934;BME280;41839;41.386;2.082;2023-03-14T09:09:42;99468.69;;;18.15;35.13
55934;BME280;41839;41.386;2.082;2023-03-14T09:12:08;99441.66;;;18.01;34.99
55934;BME280;41839;41.386;2.082;2023-03-14T09:14:33;99474.19;;;18.53;35.19
55934;BME280;41839;41.386;2.082;2023-03-14T09:16:59;99463.94;;;18.76;32.61
55934;BME280;41839;41.386;2.082;2023-03-14T09:19:24;99480.53;;;18.91;32.46
55934;BME280;41839;41.386;2.082;2023-03-14T09:21:50;99496.16;;;18.95;33.07
55934;BME280;41839;41.386;2.082;2023-03-14T09:24:16;99419.44;;;18.52;34.00
55934;BME280;41839;41.386;2.082;2023-03-14T09:26:42;99481.41;;;18.97;32.83
55934;BME280;41839;41.386;2.082;2023-03-14T09:29:08;99492.88;;;19.24;33.99
55934;BME280;41839;41.386;2.082;2023-03-14T09:31:33;99492.88;;;19.30;31.79
55934;BME280;41839;41.386;2.082;2023-03-14T09:33:59;99491.97;;;19.17;31.19
55934;BME280;41839;41.386;2.082;2023-03-14T09:36:24;99458.06;;;19.17;31.36
55934;BME280;41839;41.386;2.082;2023-03-14T09:38:50;99496.53;;;19.75;32.42
55934;BME280;41839;41.386;2.082;2023-03-14T09:41:25;99494.81;;;19.94;31.11
55934;BME280;41839;41.386;2.082;2023-03-14T09:44:22;99501.84;;;20.16;30.87
55934;BME280;41839;41.386;2.082;2023-03-14T09:46:48;99501.84;;;20.41;30.18
55934;BME280;41839;41.386;2.082;2023-03-14T09:49:26;99509.66;;;20.48;30.41
55934;BME280;41839;41.386;2.082;2023-03-14T09:51:54;99513.16;;;20.87;29.70
55934;BME280;41839;41.386;2.082;2023-03-14T09:56:55;99513.94;;;21.14;29.00
55934;BME280;41839;41.386;2.082;2023-03-14T09:59:20;99490.41;;;21.14;28.17
55934;BME280;41839;41.386;2.082;2023-03-14T10:01:46;99517.34;;;21.53;28.59
55934;BME280;41839;41.386;2.082;2023-03-14T10:04:18;99520.75;;;21.69;28.39
55934;BME280;41839;41.386;2.082;2023-03-14T10:06:46;99525.16;;;21.56;30.19
55934;BME280;41839;41.386;2.082;2023-03-14T10:09:21;99515.44;;;21.78;27.56
55934;BME280;41839;41.386;2.082;2023-03-14T10:11:56;99522.44;;;21.73;28.52
55934;BME280;41839;41.386;2.082;2023-03-14T10:14:31;99532.81;;;21.94;27.79
55934;BME280;41839;41.386;2.082;2023-03-14T10:17:08;99540.66;;;21.97;27.69
55934;BME280;41839;41.386;2.082;2023-03-14T10:19:35;99526.50;;;22.27;27.80
55934;BME280;41839;41.386;2.082;2023-03-14T10:22:03;99532.53;;;22.37;27.77
55934;BME280;41839;41.386;2.082;2023-03-14T10:24:34;99535.09;;;22.45;27.68
55934;BME280;41839;41.386;2.082;2023-03-14T10:27:19;99544.53;;;22.66;26.38
55934;BME280;41839;41.386;2.082;2023-03-14T10:29:53;99537.31;;;22.94;26.93
55934;BME280;41839;41.386;2.082;2023-03-14T10:32:21;99553.78;;;23.07;25.61
55934;BME280;41839;41.386;2.082;2023-03-14T10:35:06;99551.16;;;23.08;26.09
55934;BME280;41839;41.386;2.082;2023-03-14T10:40:26;99559.84;;;23.15;25.50
55934;BME280;41839;41.386;2.082;2023-03-14T10:42:52;99556.88;;;23.44;25.67
55934;BME280;41839;41.386;2.082;2023-03-14T10:45:35;99534.31;;;23.29;25.86
55934;BME280;41839;41.386;2.082;2023-03-14T10:55:24;99514.44;;;23.07;26.80
55934;BME280;41839;41.386;2.082;2023-03-14T10:57:51;99548.56;;;23.05;25.19
55934;BME280;41839;41.386;2.082;2023-03-14T11:00:19;99532.88;;;23.02;25.83
55934;BME280;41839;41.386;2.082;2023-03-14T11:05:30;99562.66;;;23.75;25.05
55934;BME280;41839;41.386;2.082;2023-03-14T11:08:01;99552.16;;;22.96;25.55
55934;BME280;41839;41.386;2.082;2023-03-14T11:10:33;99542.31;;;23.18;26.60
55934;BME280;41839;41.386;2.082;2023-03-14T11:13:14;99553.19;;;23.59;25.39
55934;BME280;41839;41.386;2.082;2023-03-14T11:15:41;99546.91;;;23.74;24.95
55934;BME280;41839;41.386;2.082;2023-03-14T11:25:43;99543.47;;;24.32;24.05
55934;BME280;41839;41.386;2.082;2023-03-14T11:31:36;99546.69;;;23.90;24.34
55934;BME280;41839;41.386;2.082;2023-03-14T11:35:44;99551.72;;;24.07;24.36
55934;BME280;41839;41.386;2.082;2023-03-14T11:38:50;99554.25;;;23.44;25.13
55934;BME280;41839;41.386;2.082;2023-03-14T11:41:45;99532.88;;;23.02;26.01
55934;BME280;41839;41.386;2.082;2023-03-14T11:44:30;99539.25;;;22.72;26.41
55934;BME280;41839;41.386;2.082;2023-03-14T11:47:53;99537.34;;;22.88;25.21
55934;BME280;41839;41.386;2.082;2023-03-14T11:50:27;99544.59;;;22.60;25.88
55934;BME280;41839;41.386;2.082;2023-03-14T11:53:19;99553.06;;;22.89;25.79
55934;BME280;41839;41.386;2.082;2023-03-14T11:55:47;99514.72;;;22.77;25.20
55934;BME280;41839;41.386;2.082;2023-03-14T11:58:20;99542.25;;;23.23;25.09
55934;BME280;41839;41.386;2.082;2023-03-14T12:02:01;99533.53;;;23.19;23.50
55934;BME280;41839;41.386;2.082;2023-03-14T12:07:18;99525.06;;;22.93;24.66
55934;BME280;41839;41.386;2.082;2023-03-14T12:09:45;99520.56;;;23.06;24.33
55934;BME280;41839;41.386;2.082;2023-03-14T12:12:58;99511.72;;;23.17;24.28
55934;BME280;41839;41.386;2.082;2023-03-14T12:15:24;99522.06;;;23.28;24.35
55934;BME280;41839;41.386;2.082;2023-03-14T12:17:56;99503.97;;;23.04;25.23
55934;BME280;41839;41.386;2.082;2023-03-14T12:20:23;99496.09;;;23.05;25.02
55934;BME280;41839;41.386;2.082;2023-03-14T12:25:19;99508.28;;;23.11;24.31
55934;BME280;41839;41.386;2.082;2023-03-14T12:28:02;99489.97;;;23.08;24.71
55934;BME280;41839;41.386;2.082;2023-03-14T12:30:39;99477.84;;;22.94;24.76
55934;BME280;41839;41.386;2.082;2023-03-14T12:41:41;99496.78;;;23.19;24.83
55934;BME280;41839;41.386;2.082;2023-03-14T12:46:57;99468.97;;;23.06;28.79
55934;BME280;41839;41.386;2.082;2023-03-14T12:50:12;99477.03;;;22.86;26.80
55934;BME280;41839;41.386;2.082;2023-03-14T12:59:17;99443.03;;;22.78;28.52
55934;BME280;41839;41.386;2.082;2023-03-14T13:02:49;99468.16;;;23.02;25.79
55934;BME280;41839;41.386;2.082;2023-03-14T13:05:21;99475.00;;;23.14;24.49
55934;BME280;41839;41.386;2.082;2023-03-14T13:10:29;99451.53;;;23.00;25.26
55934;BME280;41839;41.386;2.082;2023-03-14T13:13:44;99453.94;;;23.19;24.45
55934;BME280;41839;41.386;2.082;2023-03-14T13:16:53;99451.31;;;23.20;24.25
55934;BME280;41839;41.386;2.082;2023-03-14T13:19:23;99454.69;;;23.30;25.33
55934;BME280;41839;41.386;2.082;2023-03-14T13:24:23;99465.84;;;22.69;24.86
55934;BME280;41839;41.386;2.082;2023-03-14T13:26:52;99437.91;;;22.68;26.03
55934;BME280;41839;41.386;2.082;2023-03-14T13:32:39;99444.63;;;22.92;26.45
55934;BME280;41839;41.386;2.082;2023-03-14T13:35:15;99417.94;;;22.51;26.04
55934;BME280;41839;41.386;2.082;2023-03-14T13:38:55;99443.75;;;22.96;30.09
55934;BME280;41839;41.386;2.082;2023-03-14T13:41:23;99419.41;;;22.80;25.82
55934;BME280;41839;41.386;2.082;2023-03-14T13:44:16;99413.34;;;22.76;25.14
55934;BME280;41839;41.386;2.082;2023-03-14T13:46:42;99429.03;;;22.78;25.20
55934;BME280;41839;41.386;2.082;2023-03-14T13:49:14;99396.81;;;22.67;28.49
55934;BME280;41839;41.386;2.082;2023-03-14T13:51:43;99412.28;;;22.93;27.29
55934;BME280;41839;41.386;2.082;2023-03-14T13:54:17;99422.69;;;23.02;24.24
55934;BME280;41839;41.386;2.082;2023-03-14T13:57:50;99426.13;;;23.06;26.65
55934;BME280;41839;41.386;2.082;2023-03-14T14:00:26;99427.06;;;23.01;26.87
55934;BME280;41839;41.386;2.082;2023-03-14T14:02:54;99382.78;;;22.72;24.46
55934;BME280;41839;41.386;2.082;2023-03-14T14:05:20;99412.16;;;23.05;23.81
55934;BME280;41839;41.386;2.082;2023-03-14T14:07:46;99396.44;;;23.00;24.71
55934;BME280;41839;41.386;2.082;2023-03-14T14:10:13;99407.84;;;22.99;25.75
55934;BME280;41839;41.386;2.082;2023-03-14T14:13:14;99420.09;;;22.97;24.98
55934;BME280;41839;41.386;2.082;2023-03-14T14:15:44;99386.19;;;22.81;24.00
55934;BME280;41839;41.386;2.082;2023-03-14T14:18:15;99428.88;;;22.96;25.44
55934;BME280;41839;41.386;2.082;2023-03-14T14:20:44;99410.03;;;22.59;24.72
55934;BME280;41839;41.386;2.082;2023-03-14T14:23:13;99422.97;;;22.73;24.42
55934;BME280;41839;41.386;2.082;2023-03-14T14:25:40;99417.69;;;22.77;25.16